createdAt,value
2019-04-21T00:02:53.781Z,5.77
2019-04-21T00:05:43.184Z,5.73
2019-04-21T00:08:26.599Z,5.71
2019-04-21T00:10:51.348Z,5.68
2019-04-21T00:13:12.460Z,5.67
2019-04-21T00:15:36.639Z,5.68
2019-04-21T00:18:44.654Z,5.65
2019-04-21T00:21:14.911Z,5.64
2019-04-21T00:23:56.190Z,5.64
2019-04-21T00:26:28.655Z,5.61
2019-04-21T00:29:03.936Z,5.59
2019-04-21T00:31:30.859Z,5.56
2019-04-21T00:33:46.355Z,5.53
2019-04-21T00:36:22.032Z,5.50
2019-04-21T00:39:18.706Z,5.46
2019-04-21T00:41:38.351Z,5.44
2019-04-21T00:44:00.635Z,5.43
2019-04-21T00:46:35.153Z,5.41
2019-04-21T00:49:05.569Z,5.39
2019-04-21T01:00:11.631Z,5.16
2019-04-21T01:02:52.562Z,5.09
2019-04-21T01:05:33.554Z,5.05
2019-04-21T01:07:57.917Z,4.97
2019-04-21T01:13:48.301Z,4.98
2019-04-21T01:19:16.670Z,4.94
2019-04-21T01:24:46.564Z,4.87
2019-04-21T01:27:24.052Z,4.80
2019-04-21T01:30:08.564Z,4.77
2019-04-21T01:32:39.745Z,4.76
2019-04-21T01:35:04.011Z,4.72
2019-04-21T01:37:44.062Z,4.69
2019-04-21T01:40:08.494Z,4.69
2019-04-21T01:42:39.439Z,4.67
2019-04-21T01:45:04.390Z,4.64
2019-04-21T01:47:36.115Z,4.62
2019-04-21T01:50:00.049Z,4.61
2019-04-21T01:56:12.085Z,4.61
2019-04-21T01:59:08.960Z,4.57
2019-04-21T02:01:57.194Z,4.54
2019-04-21T02:07:44.312Z,4.53
2019-04-21T02:10:17.810Z,4.51
2019-04-21T02:12:45.955Z,4.46
2019-04-21T02:15:26.855Z,4.43
2019-04-21T02:20:48.122Z,4.41
2019-04-21T02:23:38.206Z,4.41
2019-04-21T02:26:03.737Z,4.38
2019-04-21T02:28:42.443Z,4.39
2019-04-21T02:31:20.453Z,4.37
2019-04-21T02:39:08.104Z,4.32
2019-04-21T02:41:13.140Z,4.34
2019-04-21T02:43:52.521Z,4.33
2019-04-21T02:46:44.573Z,4.32
2019-04-21T02:49:04.316Z,4.32
2019-04-21T02:51:42.453Z,4.32
2019-04-21T02:54:48.389Z,4.37
2019-04-21T02:57:09.308Z,4.44
2019-04-21T02:59:59.705Z,4.53
2019-04-21T03:08:09.290Z,4.51
2019-04-21T03:10:38.658Z,4.50
2019-04-21T03:13:03.564Z,4.45
2019-04-21T03:18:08.249Z,4.42
2019-04-21T03:20:42.422Z,4.03
2019-04-21T03:23:19.034Z,4.41
2019-04-21T03:28:24.196Z,4.34
2019-04-21T03:34:21.326Z,4.30
2019-04-21T03:38:40.334Z,4.30
2019-04-21T03:43:50.271Z,4.28
2019-04-21T03:46:23.267Z,4.24
2019-04-21T03:51:25.730Z,4.18
2019-04-21T03:53:54.274Z,4.14
2019-04-21T03:56:44.754Z,4.10
2019-04-21T04:04:44.157Z,4.08
2019-04-21T04:07:44.728Z,4.09
2019-04-21T04:10:07.761Z,4.11
2019-04-21T04:12:44.307Z,4.17
2019-04-21T04:15:13.773Z,4.28
2019-04-21T04:20:13.842Z,4.43
2019-04-21T04:22:49.691Z,4.52
2019-04-21T04:25:17.468Z,4.60
2019-04-21T04:28:00.217Z,4.70
2019-04-21T04:30:21.735Z,4.72
2019-04-21T04:32:41.967Z,4.76
2019-04-21T04:41:24.417Z,5.03
2019-04-21T04:44:03.310Z,5.12
2019-04-21T04:46:29.359Z,5.23
2019-04-21T04:51:33.430Z,5.40
2019-04-21T04:53:56.099Z,5.52
2019-04-21T04:56:47.724Z,5.63
2019-04-21T04:59:30.003Z,5.70
2019-04-21T05:01:36.005Z,5.77
2019-04-21T05:04:06.390Z,5.81
2019-04-21T05:12:01.622Z,6.22
2019-04-21T05:14:42.097Z,6.35
2019-04-21T05:20:11.525Z,6.53
2019-04-21T05:22:35.278Z,6.64
2019-04-21T05:25:07.057Z,6.79
2019-04-21T05:33:38.028Z,7.13
2019-04-21T05:36:30.960Z,7.26
2019-04-21T05:42:30.339Z,7.44
2019-04-21T05:45:10.463Z,7.54
2019-04-21T05:50:17.343Z,7.85
2019-04-21T05:53:01.851Z,7.97
2019-04-21T05:58:08.661Z,8.14
2019-04-21T06:03:49.168Z,8.29
2019-04-21T06:09:45.470Z,8.47
2019-04-21T06:12:08.819Z,8.57
2019-04-21T06:14:44.969Z,8.64
2019-04-21T06:17:19.184Z,8.70
2019-04-21T06:19:49.413Z,8.77
2019-04-21T06:22:13.885Z,8.86
2019-04-21T06:24:54.661Z,8.93
2019-04-21T06:27:22.932Z,9.02
2019-04-21T06:29:52.749Z,9.08
2019-04-21T06:40:15.669Z,9.40
2019-04-21T06:42:32.669Z,9.50
2019-04-21T06:45:27.343Z,9.59
2019-04-21T06:47:42.180Z,9.64
2019-04-21T06:53:11.962Z,9.80
2019-04-21T06:58:48.165Z,9.95
2019-04-21T07:01:15.565Z,10.07
2019-04-21T07:03:50.669Z,10.17
2019-04-21T07:06:12.646Z,10.26
2019-04-21T07:08:56.729Z,10.34
2019-04-21T07:11:14.991Z,10.38
2019-04-21T07:13:50.973Z,10.44
2019-04-21T07:16:27.069Z,10.52
2019-04-21T07:19:23.765Z,10.61
2019-04-21T07:24:21.846Z,10.80
2019-04-21T07:27:09.958Z,10.86
2019-04-21T07:29:40.935Z,10.87
2019-04-21T07:32:09.424Z,10.95
2019-04-21T07:37:35.304Z,11.07
2019-04-21T07:40:01.811Z,11.10
2019-04-21T07:42:32.522Z,11.18
2019-04-21T07:44:59.566Z,11.25
2019-04-21T07:48:03.341Z,11.32
2019-04-21T07:51:11.095Z,11.35
2019-04-21T07:56:20.247Z,11.45
2019-04-21T07:59:27.237Z,11.50
2019-04-21T08:04:37.951Z,11.63
2019-04-21T08:07:11.743Z,11.79
2019-04-21T08:09:57.229Z,11.79
2019-04-21T08:12:49.665Z,11.96
2019-04-21T08:15:26.589Z,11.96
2019-04-21T08:17:48.490Z,12.07
2019-04-21T08:20:18.892Z,12.12
2019-04-21T08:22:51.797Z,12.16
2019-04-21T08:25:19.597Z,12.29
2019-04-21T08:28:01.124Z,12.33
2019-04-21T08:38:45.886Z,12.73
2019-04-21T08:41:12.356Z,12.79
2019-04-21T08:48:42.329Z,12.82
2019-04-21T08:54:09.400Z,12.76
2019-04-21T08:56:54.243Z,11.57
2019-04-21T08:59:44.995Z,12.84
2019-04-21T09:02:41.785Z,12.94
2019-04-21T09:05:09.470Z,12.97
2019-04-21T09:07:39.533Z,13.03
2019-04-21T09:10:04.236Z,12.98
2019-04-21T09:12:40.414Z,12.97
2019-04-21T09:17:36.734Z,12.92
2019-04-21T09:20:21.007Z,12.92
2019-04-21T09:22:50.645Z,13.03
2019-04-21T09:25:22.126Z,13.18
2019-04-21T09:27:53.714Z,13.28
2019-04-21T09:30:04.911Z,13.29
2019-04-21T09:32:34.841Z,13.32
2019-04-21T09:38:07.800Z,12.68
2019-04-21T09:40:34.606Z,13.33
2019-04-21T09:43:04.794Z,13.39
2019-04-21T09:45:32.862Z,13.44
2019-04-21T09:48:07.936Z,13.45
2019-04-21T09:50:35.018Z,13.50
2019-04-21T09:53:14.536Z,13.57
2019-04-21T09:55:43.942Z,13.62
2019-04-21T09:58:13.541Z,13.73
2019-04-21T10:03:19.784Z,13.73
2019-04-21T10:05:49.795Z,13.80
2019-04-21T10:08:19.074Z,13.82
2019-04-21T10:10:49.061Z,13.92
2019-04-21T10:13:20.813Z,14.07
2019-04-21T10:18:38.612Z,14.02
2019-04-21T10:21:07.913Z,14.13
2019-04-21T10:23:56.267Z,14.16
2019-04-21T10:26:26.382Z,14.24
2019-04-21T10:29:05.690Z,14.35
2019-04-21T10:31:28.924Z,14.28
2019-04-21T10:36:47.094Z,14.33
2019-04-21T10:39:35.682Z,14.31
2019-04-21T10:42:06.467Z,14.41
2019-04-21T10:44:54.881Z,14.41
2019-04-21T10:48:05.051Z,14.33
2019-04-21T10:50:34.874Z,14.32
2019-04-21T10:56:17.346Z,14.34
2019-04-21T10:58:54.158Z,14.43
2019-04-21T11:01:43.047Z,14.41
2019-04-21T11:04:36.387Z,14.41
2019-04-21T11:10:04.468Z,14.52
2019-04-21T11:12:37.467Z,14.58
2019-04-21T11:15:45.806Z,14.63
2019-04-21T11:18:15.680Z,14.71
2019-04-21T11:20:46.936Z,14.76
2019-04-21T11:23:19.568Z,14.76
2019-04-21T11:25:49.501Z,14.74
2019-04-21T11:28:19.210Z,14.74
2019-04-21T11:30:48.781Z,14.81
2019-04-21T11:33:19.540Z,14.90
2019-04-21T11:35:49.049Z,15.03
2019-04-21T11:38:55.579Z,15.09
2019-04-21T11:41:10.043Z,15.08
2019-04-21T11:43:39.344Z,15.07
2019-04-21T11:46:08.677Z,15.08
2019-04-21T11:48:38.037Z,15.11
2019-04-21T11:51:07.341Z,15.09
2019-04-21T11:53:36.987Z,15.13
2019-04-21T11:56:08.988Z,15.17
2019-04-21T11:58:39.532Z,15.22
2019-04-21T12:03:58.252Z,15.32
2019-04-21T12:09:37.529Z,15.42
2019-04-21T12:14:57.676Z,15.36
2019-04-21T12:17:28.169Z,15.54
2019-04-21T12:19:58.726Z,15.62
2019-04-21T12:22:31.979Z,15.54
2019-04-21T12:25:00.772Z,15.50
2019-04-21T12:30:29.790Z,15.40
2019-04-21T12:33:18.226Z,15.57
2019-04-21T12:35:48.153Z,15.60
2019-04-21T12:43:55.010Z,15.78
2019-04-21T12:46:25.783Z,15.85
2019-04-21T12:48:57.889Z,15.80
2019-04-21T12:51:28.019Z,15.73
2019-04-21T12:53:59.566Z,15.67
2019-04-21T12:56:29.555Z,15.63
2019-04-21T12:58:59.571Z,15.63
2019-04-21T13:01:41.293Z,15.63
2019-04-21T13:04:10.575Z,15.73
2019-04-21T13:06:39.862Z,15.76
2019-04-21T13:09:12.435Z,15.75
2019-04-21T13:11:41.389Z,15.79
2019-04-21T13:14:11.660Z,15.81
2019-04-21T13:16:41.252Z,15.86
2019-04-21T13:19:13.121Z,15.90
2019-04-21T13:21:43.078Z,15.90
2019-04-21T13:24:13.601Z,15.94
2019-04-21T13:26:49.552Z,16.00
2019-04-21T13:29:14.604Z,15.94
2019-04-21T13:31:45.422Z,15.84
2019-04-21T13:37:09.649Z,15.86
2019-04-21T13:40:23.759Z,15.88
2019-04-21T13:46:01.717Z,15.87
2019-04-21T13:48:32.652Z,15.88
2019-04-21T13:51:02.318Z,15.89
2019-04-21T13:53:33.144Z,15.97
2019-04-21T13:56:02.705Z,15.93
2019-04-21T13:58:32.648Z,15.97
2019-04-21T14:01:03.510Z,16.04
2019-04-21T14:03:35.386Z,16.18
2019-04-21T14:06:06.536Z,16.27
2019-04-21T14:08:36.960Z,16.34
2019-04-21T14:11:09.219Z,16.40
2019-04-21T14:13:40.510Z,16.36
2019-04-21T14:16:09.990Z,16.31
2019-04-21T14:18:40.581Z,16.38
2019-04-21T14:21:11.374Z,16.29
2019-04-21T14:23:46.018Z,16.37
2019-04-21T14:26:12.394Z,16.40
2019-04-21T14:28:42.990Z,16.35
2019-04-21T14:31:12.694Z,16.43
2019-04-21T14:33:41.996Z,16.45
2019-04-21T14:36:12.682Z,16.48
2019-04-21T14:38:42.720Z,16.47
2019-04-21T14:41:14.541Z,16.39
2019-04-21T14:43:45.825Z,16.46
2019-04-21T14:46:35.279Z,16.51
2019-04-21T14:49:24.392Z,16.53
2019-04-21T14:54:51.924Z,16.51
2019-04-21T14:57:21.346Z,16.62
2019-04-21T14:59:51.089Z,16.75
2019-04-21T15:02:22.338Z,16.85
2019-04-21T15:05:04.025Z,16.93
2019-04-21T15:07:35.204Z,16.95
2019-04-21T15:15:42.136Z,16.88
2019-04-21T15:18:12.559Z,16.89
2019-04-21T15:20:55.177Z,16.92
2019-04-21T15:28:48.824Z,16.93
2019-04-21T15:31:41.570Z,16.96
2019-04-21T15:34:08.982Z,16.97
2019-04-21T15:36:50.299Z,16.93
2019-04-21T15:39:19.706Z,16.96
2019-04-21T15:41:50.480Z,16.98
2019-04-21T15:44:20.851Z,17.06
2019-04-21T15:46:52.100Z,16.95
2019-04-21T15:49:23.097Z,16.99
2019-04-21T15:51:53.811Z,16.98
2019-04-21T15:54:24.735Z,17.07
2019-04-21T15:57:15.608Z,17.09
2019-04-21T16:00:04.642Z,17.05
2019-04-21T16:02:52.969Z,17.09
2019-04-21T16:05:22.538Z,17.00
2019-04-21T16:07:52.060Z,17.05
2019-04-21T16:10:34.393Z,17.03
2019-04-21T16:12:58.010Z,17.06
2019-04-21T16:15:28.313Z,17.04
2019-04-21T16:17:59.350Z,17.01
2019-04-21T16:23:18.358Z,16.92
2019-04-21T16:25:50.657Z,16.91
2019-04-21T16:28:39.507Z,16.91
2019-04-21T16:31:10.236Z,16.95
2019-04-21T16:33:40.975Z,16.88
2019-04-21T16:36:13.127Z,16.92
2019-04-21T16:38:41.815Z,16.91
2019-04-21T16:41:14.126Z,16.91
2019-04-21T16:44:03.039Z,16.87
2019-04-21T16:46:33.508Z,16.80
2019-04-21T16:49:04.191Z,16.78
2019-04-21T16:51:34.366Z,16.80
2019-04-21T16:57:08.165Z,16.72
2019-04-21T16:59:56.756Z,16.64
2019-04-21T17:02:26.199Z,16.58
2019-04-21T17:04:56.282Z,16.53
2019-04-21T17:07:26.543Z,16.44
2019-04-21T17:09:56.882Z,16.37
2019-04-21T17:12:28.755Z,16.31
2019-04-21T17:17:55.928Z,16.12
2019-04-21T17:20:17.119Z,16.07
2019-04-21T17:22:35.534Z,15.97
2019-04-21T17:25:06.480Z,15.85
2019-04-21T17:27:36.757Z,15.80
2019-04-21T17:33:10.094Z,15.56
2019-04-21T17:35:40.756Z,15.43
2019-04-21T17:40:45.512Z,15.23
2019-04-21T17:46:09.076Z,15.04
2019-04-21T17:48:38.746Z,14.93
2019-04-21T17:57:06.632Z,14.61
2019-04-21T17:59:47.588Z,14.51
2019-04-21T18:02:03.616Z,14.36
2019-04-21T18:04:35.436Z,14.27
2019-04-21T18:07:32.990Z,14.16
2019-04-21T18:15:55.748Z,13.76
2019-04-21T18:18:32.952Z,13.59
2019-04-21T18:21:22.776Z,13.46
2019-04-21T18:29:09.586Z,13.12
2019-04-21T18:31:45.605Z,13.00
2019-04-21T18:40:05.709Z,12.63
2019-04-21T18:43:15.321Z,12.48
2019-04-21T18:48:38.176Z,12.19
2019-04-21T18:51:13.535Z,12.03
2019-04-21T18:54:16.138Z,11.88
2019-04-21T18:59:16.406Z,11.58
2019-04-21T19:01:53.780Z,11.44
2019-04-21T19:04:22.506Z,11.30
2019-04-21T19:07:02.658Z,11.19
2019-04-21T19:10:07.256Z,11.07
2019-04-21T19:12:16.784Z,10.94
2019-04-21T19:14:38.795Z,10.87
2019-04-21T19:20:00.822Z,10.65
2019-04-21T19:25:25.444Z,10.47
2019-04-21T19:27:56.890Z,10.34
2019-04-21T19:30:59.101Z,10.11
2019-04-21T19:33:14.430Z,10.11
2019-04-21T19:35:32.048Z,10.04
2019-04-21T19:38:07.003Z,9.97
2019-04-21T19:40:49.210Z,9.89
2019-04-21T19:43:22.334Z,9.77
2019-04-21T19:45:49.601Z,9.73
2019-04-21T19:48:25.502Z,9.66
2019-04-21T19:50:57.374Z,9.58
2019-04-21T19:53:27.722Z,9.52
2019-04-21T19:55:50.026Z,9.46
2019-04-21T19:58:27.494Z,9.40
2019-04-21T20:00:53.497Z,9.33
2019-04-21T20:06:34.542Z,9.20
2019-04-21T20:09:21.870Z,9.12
2019-04-21T20:11:56.438Z,8.98
2019-04-21T20:17:40.800Z,8.87
2019-04-21T20:19:50.123Z,8.81
2019-04-21T20:22:24.906Z,8.74
2019-04-21T20:25:01.430Z,8.69
2019-04-21T20:27:37.546Z,8.61
2019-04-21T20:30:05.631Z,8.55
2019-04-21T20:32:43.008Z,8.51
2019-04-21T20:35:17.067Z,8.45
2019-04-21T20:37:42.186Z,8.39
2019-04-21T20:40:04.379Z,8.28
2019-04-21T20:42:42.822Z,8.26
2019-04-21T20:47:39.431Z,8.13
2019-04-21T20:50:18.376Z,8.08
2019-04-21T20:52:54.092Z,8.04
2019-04-21T20:58:06.851Z,7.92
2019-04-21T21:00:55.754Z,7.84
2019-04-21T21:03:18.138Z,7.78
2019-04-21T21:05:45.513Z,7.75
2019-04-21T21:11:22.245Z,7.66
2019-04-21T21:13:51.036Z,7.60
2019-04-21T21:19:33.334Z,7.51
2019-04-21T21:21:54.312Z,7.42
2019-04-21T21:24:36.487Z,7.36
2019-04-21T21:27:36.773Z,7.32
2019-04-21T21:30:11.621Z,7.27
2019-04-21T21:33:21.727Z,7.21
2019-04-21T21:35:41.281Z,7.18
2019-04-21T21:39:01.273Z,7.12
2019-04-21T21:41:24.992Z,7.08
2019-04-21T21:43:52.241Z,6.99
2019-04-21T21:46:36.858Z,6.97
2019-04-21T21:49:01.294Z,6.93
2019-04-21T21:51:33.210Z,6.91
2019-04-21T21:53:50.970Z,6.88
2019-04-21T21:56:20.556Z,6.84
2019-04-21T21:58:51.977Z,6.78
2019-04-21T22:04:26.878Z,6.65
2019-04-21T22:07:03.775Z,6.59
2019-04-21T22:09:26.270Z,6.56
2019-04-21T22:12:00.840Z,6.52
2019-04-21T22:14:36.441Z,6.50
2019-04-21T22:17:19.643Z,6.44
2019-04-21T22:19:52.308Z,6.40
2019-04-21T22:22:15.849Z,6.37
2019-04-21T22:24:46.657Z,6.36
2019-04-21T22:27:03.182Z,6.34
2019-04-21T22:29:38.181Z,6.28
2019-04-21T22:32:10.164Z,6.25
2019-04-21T22:34:45.040Z,6.21
2019-04-21T22:37:23.988Z,6.19
2019-04-21T22:39:53.357Z,6.15
2019-04-21T22:42:19.435Z,6.10
2019-04-21T22:44:40.604Z,6.04
2019-04-21T22:47:16.926Z,6.01
2019-04-21T22:49:42.118Z,5.99
2019-04-21T22:58:09.544Z,5.89
2019-04-21T23:01:25.205Z,5.85
2019-04-21T23:03:55.305Z,5.83
2019-04-21T23:06:25.417Z,5.78
2019-04-21T23:08:52.958Z,5.77
2019-04-21T23:11:23.495Z,5.74
2019-04-21T23:14:02.016Z,5.69
2019-04-21T23:16:29.909Z,5.64
2019-04-21T23:19:15.923Z,5.60
2019-04-21T23:21:47.678Z,5.55
2019-04-21T23:27:09.153Z,5.45
2019-04-21T23:29:53.833Z,5.42
2019-04-21T23:32:09.483Z,5.41
2019-04-21T23:34:30.608Z,5.42
2019-04-21T23:37:03.209Z,5.43
2019-04-21T23:39:32.336Z,5.42
2019-04-21T23:42:00.913Z,5.40
2019-04-21T23:44:35.268Z,5.36
2019-04-21T23:47:52.825Z,5.33
2019-04-21T23:53:25.705Z,5.33
2019-04-21T23:55:57.013Z,5.38
2019-04-21T23:58:30.017Z,5.53
